sensor_id;sensor_type;location;lat;lon;timestamp;temperature;humidity
55091;DHT22;40985;53.180;5.800;2023-08-01T00:00:32;15.20;99.90
55091;DHT22;40985;53.180;5.800;2023-08-01T00:02:59;15.40;99.90
55091;DHT22;40985;53.180;5.800;2023-08-01T00:05:24;15.40;99.90
55091;DHT22;40985;53.180;5.800;2023-08-01T00:07:51;15.20;99.90
55091;DHT22;40985;53.180;5.800;2023-08-01T00:10:17;15.30;99.90
55091;DHT22;40985;53.180;5.800;2023-08-01T00:12:42;15.20;99.90
55091;DHT22;40985;53.180;5.800;2023-08-01T00:15:08;15.10;99.90
55091;DHT22;40985;53.180;5.800;2023-08-01T00:17:34;15.10;99.90
55091;DHT22;40985;53.180;5.800;2023-08-01T00:20:01;15.10;99.90
55091;DHT22;40985;53.180;5.800;2023-08-01T00:22:27;15.10;99.90
55091;DHT22;40985;53.180;5.800;2023-08-01T00:24:53;15.00;99.90
55091;DHT22;40985;53.180;5.800;2023-08-01T00:27:19;14.90;99.90
55091;DHT22;40985;53.180;5.800;2023-08-01T00:29:45;14.70;99.90
55091;DHT22;40985;53.180;5.800;2023-08-01T00:32:10;14.80;99.90
55091;DHT22;40985;53.180;5.800;2023-08-01T00:34:36;14.80;99.90
55091;DHT22;40985;53.180;5.800;2023-08-01T00:37:02;14.60;99.90
55091;DHT22;40985;53.180;5.800;2023-08-01T00:39:28;14.50;99.90
55091;DHT22;40985;53.180;5.800;2023-08-01T00:41:53;14.50;99.90
55091;DHT22;40985;53.180;5.800;2023-08-01T00:44:19;14.50;99.90
55091;DHT22;40985;53.180;5.800;2023-08-01T00:46:45;14.40;99.90
55091;DHT22;40985;53.180;5.800;2023-08-01T00:49:11;14.30;99.90
55091;DHT22;40985;53.180;5.800;2023-08-01T00:51:37;14.40;99.90
55091;DHT22;40985;53.180;5.800;2023-08-01T00:54:03;14.20;99.90
55091;DHT22;40985;53.180;5.800;2023-08-01T00:56:29;14.20;99.90
55091;DHT22;40985;53.180;5.800;2023-08-01T00:58:54;14.30;99.90
55091;DHT22;40985;53.180;5.800;2023-08-01T01:01:20;14.20;99.90
55091;DHT22;40985;53.180;5.800;2023-08-01T01:03:46;14.10;99.90
55091;DHT22;40985;53.180;5.800;2023-08-01T01:06:15;14.20;99.90
55091;DHT22;40985;53.180;5.800;2023-08-01T01:08:43;14.10;99.90
55091;DHT22;40985;53.180;5.800;2023-08-01T01:11:09;14.10;99.90
55091;DHT22;40985;53.180;5.800;2023-08-01T01:13:34;14.10;99.90
55091;DHT22;40985;53.180;5.800;2023-08-01T01:16:00;14.10;99.90
55091;DHT22;40985;53.180;5.800;2023-08-01T01:18:26;14.00;99.90
55091;DHT22;40985;53.180;5.800;2023-08-01T01:20:51;14.00;99.90
55091;DHT22;40985;53.180;5.800;2023-08-01T01:23:17;14.00;99.90
55091;DHT22;40985;53.180;5.800;2023-08-01T01:25:45;14.10;99.90
55091;DHT22;40985;53.180;5.800;2023-08-01T01:28:13;14.10;99.90
55091;DHT22;40985;53.180;5.800;2023-08-01T01:30:40;14.00;99.90
55091;DHT22;40985;53.180;5.800;2023-08-01T01:33:07;14.00;99.90
55091;DHT22;40985;53.180;5.800;2023-08-01T01:35:34;13.90;99.90
55091;DHT22;40985;53.180;5.800;2023-08-01T01:38:00;14.10;99.90
55091;DHT22;40985;53.180;5.800;2023-08-01T01:40:30;14.10;99.90
55091;DHT22;40985;53.180;5.800;2023-08-01T01:42:56;14.10;99.90
55091;DHT22;40985;53.180;5.800;2023-08-01T01:45:22;13.90;99.90
55091;DHT22;40985;53.180;5.800;2023-08-01T01:47:47;13.90;99.90
55091;DHT22;40985;53.180;5.800;2023-08-01T01:50:13;13.90;99.90
55091;DHT22;40985;53.180;5.800;2023-08-01T01:52:40;14.00;99.90
55091;DHT22;40985;53.180;5.800;2023-08-01T01:55:06;14.00;99.90
55091;DHT22;40985;53.180;5.800;2023-08-01T01:57:31;13.80;99.90
55091;DHT22;40985;53.180;5.800;2023-08-01T01:59:57;14.00;99.90
55091;DHT22;40985;53.180;5.800;2023-08-01T02:02:22;14.10;99.90
55091;DHT22;40985;53.180;5.800;2023-08-01T02:04:50;14.10;99.90
55091;DHT22;40985;53.180;5.800;2023-08-01T02:07:15;13.90;99.90
55091;DHT22;40985;53.180;5.800;2023-08-01T02:09:41;14.00;99.90
55091;DHT22;40985;53.180;5.800;2023-08-01T02:12:07;14.10;99.90
55091;DHT22;40985;53.180;5.800;2023-08-01T02:14:35;14.10;99.90
55091;DHT22;40985;53.180;5.800;2023-08-01T02:17:01;14.10;99.90
55091;DHT22;40985;53.180;5.800;2023-08-01T02:19:27;14.20;99.90
55091;DHT22;40985;53.180;5.800;2023-08-01T02:21:53;14.00;99.90
55091;DHT22;40985;53.180;5.800;2023-08-01T02:24:19;14.00;99.90
55091;DHT22;40985;53.180;5.800;2023-08-01T02:26:45;14.10;99.90
55091;DHT22;40985;53.180;5.800;2023-08-01T02:29:10;14.20;99.90
55091;DHT22;40985;53.180;5.800;2023-08-01T02:31:36;14.10;99.90
55091;DHT22;40985;53.180;5.800;2023-08-01T02:34:02;14.10;99.90
55091;DHT22;40985;53.180;5.800;2023-08-01T02:36:27;14.30;99.90
55091;DHT22;40985;53.180;5.800;2023-08-01T02:38:53;14.30;99.90
55091;DHT22;40985;53.180;5.800;2023-08-01T02:41:19;14.50;99.90
55091;DHT22;40985;53.180;5.800;2023-08-01T02:43:44;14.50;99.90
55091;DHT22;40985;53.180;5.800;2023-08-01T02:46:10;14.40;99.90
55091;DHT22;40985;53.180;5.800;2023-08-01T02:48:36;14.30;99.90
55091;DHT22;40985;53.180;5.800;2023-08-01T02:51:02;14.50;99.90
55091;DHT22;40985;53.180;5.800;2023-08-01T02:53:27;14.20;99.90
55091;DHT22;40985;53.180;5.800;2023-08-01T02:55:53;14.50;99.90
55091;DHT22;40985;53.180;5.800;2023-08-01T02:58:19;14.50;99.90
55091;DHT22;40985;53.180;5.800;2023-08-01T03:00:45;14.50;99.90
55091;DHT22;40985;53.180;5.800;2023-08-01T03:03:10;14.20;99.90
55091;DHT22;40985;53.180;5.800;2023-08-01T03:05:37;14.40;99.90
55091;DHT22;40985;53.180;5.800;2023-08-01T03:08:05;14.30;99.90
55091;DHT22;40985;53.180;5.800;2023-08-01T03:10:31;14.20;99.90
55091;DHT22;40985;53.180;5.800;2023-08-01T03:12:56;14.20;99.90
55091;DHT22;40985;53.180;5.800;2023-08-01T03:15:22;14.10;99.90
55091;DHT22;40985;53.180;5.800;2023-08-01T03:17:48;14.20;99.90
55091;DHT22;40985;53.180;5.800;2023-08-01T03:20:13;14.30;99.90
55091;DHT22;40985;53.180;5.800;2023-08-01T03:22:40;14.30;99.90
55091;DHT22;40985;53.180;5.800;2023-08-01T03:25:06;14.10;99.90
55091;DHT22;40985;53.180;5.800;2023-08-01T03:27:35;14.00;99.90
55091;DHT22;40985;53.180;5.800;2023-08-01T03:30:01;14.30;99.90
55091;DHT22;40985;53.180;5.800;2023-08-01T03:32:27;14.10;99.90
55091;DHT22;40985;53.180;5.800;2023-08-01T03:34:53;14.00;99.90
55091;DHT22;40985;53.180;5.800;2023-08-01T03:37:18;14.10;99.90
55091;DHT22;40985;53.180;5.800;2023-08-01T03:39:44;14.10;99.90
55091;DHT22;40985;53.180;5.800;2023-08-01T03:42:10;14.20;99.90
55091;DHT22;40985;53.180;5.800;2023-08-01T03:44:36;14.00;99.90
55091;DHT22;40985;53.180;5.800;2023-08-01T03:47:02;14.00;99.90
55091;DHT22;40985;53.180;5.800;2023-08-01T03:49:27;13.90;99.90
55091;DHT22;40985;53.180;5.800;2023-08-01T03:51:53;14.00;99.90
55091;DHT22;40985;53.180;5.800;2023-08-01T03:54:19;14.00;99.90
55091;DHT22;40985;53.180;5.800;2023-08-01T03:56:45;14.10;99.90
55091;DHT22;40985;53.180;5.800;2023-08-01T03:59:15;14.20;99.90
55091;DHT22;40985;53.180;5.800;2023-08-01T04:01:41;14.10;99.90
55091;DHT22;40985;53.180;5.800;2023-08-01T04:04:11;14.20;99.90
55091;DHT22;40985;53.180;5.800;2023-08-01T04:06:37;14.00;99.90
55091;DHT22;40985;53.180;5.800;2023-08-01T04:09:02;14.10;99.90
55091;DHT22;40985;53.180;5.800;2023-08-01T04:11:28;14.10;99.90
55091;DHT22;40985;53.180;5.800;2023-08-01T04:13:55;14.30;99.90
55091;DHT22;40985;53.180;5.800;2023-08-01T04:16:21;14.20;99.90
55091;DHT22;40985;53.180;5.800;2023-08-01T04:18:47;14.20;99.90
55091;DHT22;40985;53.180;5.800;2023-08-01T04:21:14;14.10;99.90
55091;DHT22;40985;53.180;5.800;2023-08-01T04:23:40;14.20;99.90
55091;DHT22;40985;53.180;5.800;2023-08-01T04:26:06;14.40;99.90
55091;DHT22;40985;53.180;5.800;2023-08-01T04:28:33;14.30;99.90
55091;DHT22;40985;53.180;5.800;2023-08-01T04:30:58;14.50;99.90
55091;DHT22;40985;53.180;5.800;2023-08-01T04:33:24;14.10;99.90
55091;DHT22;40985;53.180;5.800;2023-08-01T04:35:49;14.50;99.90
55091;DHT22;40985;53.180;5.800;2023-08-01T04:38:16;14.10;99.90
55091;DHT22;40985;53.180;5.800;2023-08-01T04:40:42;14.20;99.90
55091;DHT22;40985;53.180;5.800;2023-08-01T04:43:07;14.20;99.90
55091;DHT22;40985;53.180;5.800;2023-08-01T04:45:33;14.10;99.90
55091;DHT22;40985;53.180;5.800;2023-08-01T04:47:59;14.30;99.90
55091;DHT22;40985;53.180;5.800;2023-08-01T04:50:24;14.50;99.90
55091;DHT22;40985;53.180;5.800;2023-08-01T04:52:50;14.50;99.90
55091;DHT22;40985;53.180;5.800;2023-08-01T04:55:16;14.40;99.90
55091;DHT22;40985;53.180;5.800;2023-08-01T04:57:41;14.20;99.90
55091;DHT22;40985;53.180;5.800;2023-08-01T05:00:09;14.70;99.90
55091;DHT22;40985;53.180;5.800;2023-08-01T05:02:35;14.50;99.90
55091;DHT22;40985;53.180;5.800;2023-08-01T05:05:01;14.70;99.90
55091;DHT22;40985;53.180;5.800;2023-08-01T05:07:26;14.70;99.90
55091;DHT22;40985;53.180;5.800;2023-08-01T05:09:52;14.70;99.90
55091;DHT22;40985;53.180;5.800;2023-08-01T05:12:18;14.80;99.90
55091;DHT22;40985;53.180;5.800;2023-08-01T05:14:43;14.70;99.90
55091;DHT22;40985;53.180;5.800;2023-08-01T05:17:09;14.60;99.90
55091;DHT22;40985;53.180;5.800;2023-08-01T05:19:34;14.70;99.90
55091;DHT22;40985;53.180;5.800;2023-08-01T05:22:01;14.30;99.90
55091;DHT22;40985;53.180;5.800;2023-08-01T05:24:26;14.50;99.90
55091;DHT22;40985;53.180;5.800;2023-08-01T05:26:52;14.20;99.90
55091;DHT22;40985;53.180;5.800;2023-08-01T05:29:18;14.20;99.90
55091;DHT22;40985;53.180;5.800;2023-08-01T05:31:43;14.30;99.90
55091;DHT22;40985;53.180;5.800;2023-08-01T05:34:09;14.20;99.90
55091;DHT22;40985;53.180;5.800;2023-08-01T05:36:35;14.30;99.90
55091;DHT22;40985;53.180;5.800;2023-08-01T05:39:02;14.30;99.90
55091;DHT22;40985;53.180;5.800;2023-08-01T05:41:29;14.40;99.90
55091;DHT22;40985;53.180;5.800;2023-08-01T05:43:54;14.20;99.90
55091;DHT22;40985;53.180;5.800;2023-08-01T05:46:20;14.40;99.90
55091;DHT22;40985;53.180;5.800;2023-08-01T05:48:46;14.30;99.90
55091;DHT22;40985;53.180;5.800;2023-08-01T05:51:12;14.10;99.90
55091;DHT22;40985;53.180;5.800;2023-08-01T05:53:37;14.30;99.90
55091;DHT22;40985;53.180;5.800;2023-08-01T05:56:03;14.20;99.90
55091;DHT22;40985;53.180;5.800;2023-08-01T05:58:30;14.10;99.90
55091;DHT22;40985;53.180;5.800;2023-08-01T06:00:56;14.40;99.90
55091;DHT22;40985;53.180;5.800;2023-08-01T06:03:22;14.70;99.90
55091;DHT22;40985;53.180;5.800;2023-08-01T06:05:48;14.60;99.90
55091;DHT22;40985;53.180;5.800;2023-08-01T06:08:14;14.70;99.90
55091;DHT22;40985;53.180;5.800;2023-08-01T06:10:41;14.90;99.90
55091;DHT22;40985;53.180;5.800;2023-08-01T06:13:07;14.50;99.90
55091;DHT22;40985;53.180;5.800;2023-08-01T06:15:33;14.90;99.90
55091;DHT22;40985;53.180;5.800;2023-08-01T06:17:58;14.50;99.90
55091;DHT22;40985;53.180;5.800;2023-08-01T06:20:24;14.50;99.90
55091;DHT22;40985;53.180;5.800;2023-08-01T06:22:50;14.60;99.90
55091;DHT22;40985;53.180;5.800;2023-08-01T06:25:16;14.80;99.90
55091;DHT22;40985;53.180;5.800;2023-08-01T06:27:42;14.80;99.90
55091;DHT22;40985;53.180;5.800;2023-08-01T06:30:07;14.70;99.90
55091;DHT22;40985;53.180;5.800;2023-08-01T06:32:33;14.60;99.90
55091;DHT22;40985;53.180;5.800;2023-08-01T06:34:59;14.70;99.90
55091;DHT22;40985;53.180;5.800;2023-08-01T06:37:24;14.60;99.90
55091;DHT22;40985;53.180;5.800;2023-08-01T06:39:50;14.70;99.90
55091;DHT22;40985;53.180;5.800;2023-08-01T06:42:16;14.70;99.90
55091;DHT22;40985;53.180;5.800;2023-08-01T06:44:42;14.60;99.90
55091;DHT22;40985;53.180;5.800;2023-08-01T06:47:07;14.50;99.90
55091;DHT22;40985;53.180;5.800;2023-08-01T06:49:33;14.50;99.90
55091;DHT22;40985;53.180;5.800;2023-08-01T06:51:59;14.70;99.90
55091;DHT22;40985;53.180;5.800;2023-08-01T06:54:24;14.90;99.90
55091;DHT22;40985;53.180;5.800;2023-08-01T06:56:50;14.70;99.90
55091;DHT22;40985;53.180;5.800;2023-08-01T06:59:16;14.90;99.90
55091;DHT22;40985;53.180;5.800;2023-08-01T07:01:43;14.60;99.90
55091;DHT22;40985;53.180;5.800;2023-08-01T07:04:13;14.90;99.90
55091;DHT22;40985;53.180;5.800;2023-08-01T07:06:41;15.10;99.90
55091;DHT22;40985;53.180;5.800;2023-08-01T07:09:07;15.00;99.90
55091;DHT22;40985;53.180;5.800;2023-08-01T07:11:33;15.20;99.90
55091;DHT22;40985;53.180;5.800;2023-08-01T07:13:58;15.20;99.90
55091;DHT22;40985;53.180;5.800;2023-08-01T07:16:24;15.40;99.90
55091;DHT22;40985;53.180;5.800;2023-08-01T07:18:50;15.20;99.90
55091;DHT22;40985;53.180;5.800;2023-08-01T07:21:16;15.10;99.90
55091;DHT22;40985;53.180;5.800;2023-08-01T07:23:42;15.20;99.90
55091;DHT22;40985;53.180;5.800;2023-08-01T07:26:08;14.90;99.90
55091;DHT22;40985;53.180;5.800;2023-08-01T07:28:34;15.10;99.90
55091;DHT22;40985;53.180;5.800;2023-08-01T07:31:04;14.70;99.90
55091;DHT22;40985;53.180;5.800;2023-08-01T07:33:31;14.90;99.90
55091;DHT22;40985;53.180;5.800;2023-08-01T07:35:57;14.70;99.90
55091;DHT22;40985;53.180;5.800;2023-08-01T07:38:23;14.50;99.90
55091;DHT22;40985;53.180;5.800;2023-08-01T07:40:49;14.70;99.90
55091;DHT22;40985;53.180;5.800;2023-08-01T07:43:15;14.80;99.90
55091;DHT22;40985;53.180;5.800;2023-08-01T07:45:40;14.50;99.90
55091;DHT22;40985;53.180;5.800;2023-08-01T07:48:06;14.70;99.90
55091;DHT22;40985;53.180;5.800;2023-08-01T07:50:32;14.50;99.90
55091;DHT22;40985;53.180;5.800;2023-08-01T07:52:57;14.80;99.90
55091;DHT22;40985;53.180;5.800;2023-08-01T07:55:23;15.00;99.90
55091;DHT22;40985;53.180;5.800;2023-08-01T07:57:49;14.90;99.90
55091;DHT22;40985;53.180;5.800;2023-08-01T08:00:15;15.00;99.90
55091;DHT22;40985;53.180;5.800;2023-08-01T08:02:42;15.50;99.90
55091;DHT22;40985;53.180;5.800;2023-08-01T08:05:08;15.50;99.90
55091;DHT22;40985;53.180;5.800;2023-08-01T08:07:34;15.40;99.90
55091;DHT22;40985;53.180;5.800;2023-08-01T08:10:00;15.00;99.90
55091;DHT22;40985;53.180;5.800;2023-08-01T08:12:25;15.20;99.90
55091;DHT22;40985;53.180;5.800;2023-08-01T08:14:51;15.40;99.90
55091;DHT22;40985;53.180;5.800;2023-08-01T08:17:17;15.90;99.90
55091;DHT22;40985;53.180;5.800;2023-08-01T08:19:42;16.10;99.90
55091;DHT22;40985;53.180;5.800;2023-08-01T08:22:08;16.00;99.90
55091;DHT22;40985;53.180;5.800;2023-08-01T08:24:34;15.80;99.90
55091;DHT22;40985;53.180;5.800;2023-08-01T08:26:59;15.70;99.90
55091;DHT22;40985;53.180;5.800;2023-08-01T08:29:25;15.60;99.90
55091;DHT22;40985;53.180;5.800;2023-08-01T08:31:50;15.60;99.90
55091;DHT22;40985;53.180;5.800;2023-08-01T08:34:16;15.80;99.90
55091;DHT22;40985;53.180;5.800;2023-08-01T08:36:42;15.90;99.90
55091;DHT22;40985;53.180;5.800;2023-08-01T08:39:08;16.30;99.90
55091;DHT22;40985;53.180;5.800;2023-08-01T08:41:47;16.20;99.90
55091;DHT22;40985;53.180;5.800;2023-08-01T08:44:15;16.20;99.90
55091;DHT22;40985;53.180;5.800;2023-08-01T08:46:52;16.30;99.90
55091;DHT22;40985;53.180;5.800;2023-08-01T08:49:19;16.30;99.90
55091;DHT22;40985;53.180;5.800;2023-08-01T08:51:46;16.30;99.90
55091;DHT22;40985;53.180;5.800;2023-08-01T08:54:13;16.40;99.90
55091;DHT22;40985;53.180;5.800;2023-08-01T08:56:40;16.60;99.90
55091;DHT22;40985;53.180;5.800;2023-08-01T08:59:07;16.70;99.90
55091;DHT22;40985;53.180;5.800;2023-08-01T09:01:33;16.80;99.90
55091;DHT22;40985;53.180;5.800;2023-08-01T09:03:59;16.90;99.90
55091;DHT22;40985;53.180;5.800;2023-08-01T09:06:30;16.90;99.90
55091;DHT22;40985;53.180;5.800;2023-08-01T09:09:02;16.90;99.90
55091;DHT22;40985;53.180;5.800;2023-08-01T09:11:39;16.90;99.90
55091;DHT22;40985;53.180;5.800;2023-08-01T09:14:06;16.80;99.90
55091;DHT22;40985;53.180;5.800;2023-08-01T09:16:33;16.70;99.90
55091;DHT22;40985;53.180;5.800;2023-08-01T09:18:59;16.50;99.90
55091;DHT22;40985;53.180;5.800;2023-08-01T09:21:25;16.70;99.90
55091;DHT22;40985;53.180;5.800;2023-08-01T09:23:51;16.80;99.90
55091;DHT22;40985;53.180;5.800;2023-08-01T09:26:18;16.90;99.90
55091;DHT22;40985;53.180;5.800;2023-08-01T09:28:58;16.90;99.90
55091;DHT22;40985;53.180;5.800;2023-08-01T09:31:33;16.90;99.90
55091;DHT22;40985;53.180;5.800;2023-08-01T09:34:00;17.00;99.90
55091;DHT22;40985;53.180;5.800;2023-08-01T09:36:26;17.10;99.90
55091;DHT22;40985;53.180;5.800;2023-08-01T09:38:51;17.20;99.90
55091;DHT22;40985;53.180;5.800;2023-08-01T09:41:23;17.20;99.90
55091;DHT22;40985;53.180;5.800;2023-08-01T09:43:49;17.20;99.90
55091;DHT22;40985;53.180;5.800;2023-08-01T09:46:15;17.20;99.90
55091;DHT22;40985;53.180;5.800;2023-08-01T09:48:41;17.10;99.90
55091;DHT22;40985;53.180;5.800;2023-08-01T09:53:35;17.40;99.90
55091;DHT22;40985;53.180;5.800;2023-08-01T09:56:02;17.50;99.90
55091;DHT22;40985;53.180;5.800;2023-08-01T09:58:32;17.60;99.90
55091;DHT22;40985;53.180;5.800;2023-08-01T10:01:00;17.40;99.90
55091;DHT22;40985;53.180;5.800;2023-08-01T10:03:29;17.30;99.90
55091;DHT22;40985;53.180;5.800;2023-08-01T10:05:56;17.70;99.90
55091;DHT22;40985;53.180;5.800;2023-08-01T10:08:23;18.00;99.90
55091;DHT22;40985;53.180;5.800;2023-08-01T10:10:49;18.00;99.90
55091;DHT22;40985;53.180;5.800;2023-08-01T10:13:15;18.00;99.90
55091;DHT22;40985;53.180;5.800;2023-08-01T10:15:41;18.00;99.90
55091;DHT22;40985;53.180;5.800;2023-08-01T10:18:08;17.80;99.90
55091;DHT22;40985;53.180;5.800;2023-08-01T10:20:36;17.80;99.90
55091;DHT22;40985;53.180;5.800;2023-08-01T10:23:03;17.90;99.90
55091;DHT22;40985;53.180;5.800;2023-08-01T10:25:29;17.90;99.90
55091;DHT22;40985;53.180;5.800;2023-08-01T10:30:28;17.90;99.90
55091;DHT22;40985;53.180;5.800;2023-08-01T10:32:55;18.00;99.90
55091;DHT22;40985;53.180;5.800;2023-08-01T10:35:42;18.10;99.90
55091;DHT22;40985;53.180;5.800;2023-08-01T10:38:10;18.00;99.90
55091;DHT22;40985;53.180;5.800;2023-08-01T10:40:41;17.90;99.90
55091;DHT22;40985;53.180;5.800;2023-08-01T10:43:24;18.10;99.90
55091;DHT22;40985;53.180;5.800;2023-08-01T10:46:03;18.00;99.90
55091;DHT22;40985;53.180;5.800;2023-08-01T10:48:29;17.80;99.90
55091;DHT22;40985;53.180;5.800;2023-08-01T10:50:55;18.00;99.90
55091;DHT22;40985;53.180;5.800;2023-08-01T10:53:24;18.10;99.90
55091;DHT22;40985;53.180;5.800;2023-08-01T10:55:50;18.00;99.90
55091;DHT22;40985;53.180;5.800;2023-08-01T10:58:16;18.10;99.90
55091;DHT22;40985;53.180;5.800;2023-08-01T11:00:42;17.90;99.90
55091;DHT22;40985;53.180;5.800;2023-08-01T11:03:08;18.00;99.90
55091;DHT22;40985;53.180;5.800;2023-08-01T11:05:34;18.00;99.90
55091;DHT22;40985;53.180;5.800;2023-08-01T11:08:01;18.10;99.90
55091;DHT22;40985;53.180;5.800;2023-08-01T11:10:29;18.00;99.90
55091;DHT22;40985;53.180;5.800;2023-08-01T11:12:55;18.10;99.90
55091;DHT22;40985;53.180;5.800;2023-08-01T11:15:21;18.00;99.90
55091;DHT22;40985;53.180;5.800;2023-08-01T11:17:53;18.00;99.90
55091;DHT22;40985;53.180;5.800;2023-08-01T11:20:22;18.10;99.90
55091;DHT22;40985;53.180;5.800;2023-08-01T11:22:59;17.90;99.90
55091;DHT22;40985;53.180;5.800;2023-08-01T11:25:42;17.90;99.90
55091;DHT22;40985;53.180;5.800;2023-08-01T11:28:10;18.00;99.90
55091;DHT22;40985;53.180;5.800;2023-08-01T11:30:37;18.10;99.90
55091;DHT22;40985;53.180;5.800;2023-08-01T11:33:16;18.30;99.90
55091;DHT22;40985;53.180;5.800;2023-08-01T11:35:42;18.10;99.90
55091;DHT22;40985;53.180;5.800;2023-08-01T11:38:08;18.00;99.90
55091;DHT22;40985;53.180;5.800;2023-08-01T11:40:34;18.30;99.90
55091;DHT22;40985;53.180;5.800;2023-08-01T11:43:00;18.70;99.90
55091;DHT22;40985;53.180;5.800;2023-08-01T11:45:25;19.00;99.90
55091;DHT22;40985;53.180;5.800;2023-08-01T11:47:51;18.90;99.90
55091;DHT22;40985;53.180;5.800;2023-08-01T11:50:21;18.60;99.90
55091;DHT22;40985;53.180;5.800;2023-08-01T11:52:48;19.00;99.90
55091;DHT22;40985;53.180;5.800;2023-08-01T11:55:21;19.30;99.90
55091;DHT22;40985;53.180;5.800;2023-08-01T11:57:57;18.90;99.90
55091;DHT22;40985;53.180;5.800;2023-08-01T12:00:26;19.00;99.90
55091;DHT22;40985;53.180;5.800;2023-08-01T12:03:02;18.80;99.90
55091;DHT22;40985;53.180;5.800;2023-08-01T12:05:28;18.60;99.90
55091;DHT22;40985;53.180;5.800;2023-08-01T12:07:54;18.60;99.90
55091;DHT22;40985;53.180;5.800;2023-08-01T12:10:20;18.40;99.90
55091;DHT22;40985;53.180;5.800;2023-08-01T12:12:47;18.30;99.90
55091;DHT22;40985;53.180;5.800;2023-08-01T12:15:16;18.10;99.90
55091;DHT22;40985;53.180;5.800;2023-08-01T12:17:42;18.00;99.90
55091;DHT22;40985;53.180;5.800;2023-08-01T12:20:08;18.00;99.90
55091;DHT22;40985;53.180;5.800;2023-08-01T12:22:34;18.20;99.90
55091;DHT22;40985;53.180;5.800;2023-08-01T12:24:59;18.20;99.90
55091;DHT22;40985;53.180;5.800;2023-08-01T12:27:25;17.80;99.90
55091;DHT22;40985;53.180;5.800;2023-08-01T12:29:50;17.60;99.90
55091;DHT22;40985;53.180;5.800;2023-08-01T12:32:16;17.50;99.90
55091;DHT22;40985;53.180;5.800;2023-08-01T12:34:42;17.30;99.90
55091;DHT22;40985;53.180;5.800;2023-08-01T12:37:07;17.20;99.90
55091;DHT22;40985;53.180;5.800;2023-08-01T12:39:33;17.40;99.90
55091;DHT22;40985;53.180;5.800;2023-08-01T12:41:59;17.50;99.90
55091;DHT22;40985;53.180;5.800;2023-08-01T12:44:24;17.40;99.90
55091;DHT22;40985;53.180;5.800;2023-08-01T12:46:50;17.60;99.90
55091;DHT22;40985;53.180;5.800;2023-08-01T12:49:17;18.10;99.90
55091;DHT22;40985;53.180;5.800;2023-08-01T12:51:43;18.00;99.90
55091;DHT22;40985;53.180;5.800;2023-08-01T12:54:08;17.70;99.90
55091;DHT22;40985;53.180;5.800;2023-08-01T12:56:34;17.50;99.90
55091;DHT22;40985;53.180;5.800;2023-08-01T12:59:00;17.90;99.90
55091;DHT22;40985;53.180;5.800;2023-08-01T13:01:25;18.20;99.90
55091;DHT22;40985;53.180;5.800;2023-08-01T13:03:51;17.90;99.90
55091;DHT22;40985;53.180;5.800;2023-08-01T13:06:17;17.40;99.90
55091;DHT22;40985;53.180;5.800;2023-08-01T13:08:43;17.40;99.90
55091;DHT22;40985;53.180;5.800;2023-08-01T13:11:12;17.50;99.90
55091;DHT22;40985;53.180;5.800;2023-08-01T13:13:39;17.30;99.90
55091;DHT22;40985;53.180;5.800;2023-08-01T13:16:05;17.30;99.90
55091;DHT22;40985;53.180;5.800;2023-08-01T13:18:31;17.60;99.90
55091;DHT22;40985;53.180;5.800;2023-08-01T13:20:57;17.60;99.90
55091;DHT22;40985;53.180;5.800;2023-08-01T13:23:25;17.60;99.90
55091;DHT22;40985;53.180;5.800;2023-08-01T13:25:51;17.30;99.90
55091;DHT22;40985;53.180;5.800;2023-08-01T13:28:16;17.30;99.90
55091;DHT22;40985;53.180;5.800;2023-08-01T13:30:42;17.30;99.90
55091;DHT22;40985;53.180;5.800;2023-08-01T13:33:08;17.30;99.90
55091;DHT22;40985;53.180;5.800;2023-08-01T13:35:34;17.30;99.90
55091;DHT22;40985;53.180;5.800;2023-08-01T13:38:00;17.40;99.90
55091;DHT22;40985;53.180;5.800;2023-08-01T13:40:25;17.50;99.90
55091;DHT22;40985;53.180;5.800;2023-08-01T13:42:51;17.30;99.90
55091;DHT22;40985;53.180;5.800;2023-08-01T13:45:17;17.10;99.90
55091;DHT22;40985;53.180;5.800;2023-08-01T13:47:43;17.00;99.90
55091;DHT22;40985;53.180;5.800;2023-08-01T13:50:08;16.80;99.90
55091;DHT22;40985;53.180;5.800;2023-08-01T13:52:37;16.70;99.90
55091;DHT22;40985;53.180;5.800;2023-08-01T13:55:02;16.60;99.90
55091;DHT22;40985;53.180;5.800;2023-08-01T13:57:28;16.70;99.90
55091;DHT22;40985;53.180;5.800;2023-08-01T13:59:54;16.90;99.90
55091;DHT22;40985;53.180;5.800;2023-08-01T14:02:19;17.10;99.90
55091;DHT22;40985;53.180;5.800;2023-08-01T14:04:45;17.40;99.90
55091;DHT22;40985;53.180;5.800;2023-08-01T14:07:11;17.60;99.90
55091;DHT22;40985;53.180;5.800;2023-08-01T14:09:36;17.80;99.90
55091;DHT22;40985;53.180;5.800;2023-08-01T14:12:03;17.70;99.90
55091;DHT22;40985;53.180;5.800;2023-08-01T14:14:29;17.60;99.90
55091;DHT22;40985;53.180;5.800;2023-08-01T14:16:55;17.70;99.90
55091;DHT22;40985;53.180;5.800;2023-08-01T14:19:20;17.60;99.90
55091;DHT22;40985;53.180;5.800;2023-08-01T14:21:46;17.50;99.90
55091;DHT22;40985;53.180;5.800;2023-08-01T14:24:12;17.40;99.90
55091;DHT22;40985;53.180;5.800;2023-08-01T14:26:37;17.40;99.90
55091;DHT22;40985;53.180;5.800;2023-08-01T14:29:03;17.50;99.90
55091;DHT22;40985;53.180;5.800;2023-08-01T14:31:29;17.70;99.90
55091;DHT22;40985;53.180;5.800;2023-08-01T14:33:54;17.70;99.90
55091;DHT22;40985;53.180;5.800;2023-08-01T14:36:20;17.60;99.90
55091;DHT22;40985;53.180;5.800;2023-08-01T14:38:46;17.80;99.90
55091;DHT22;40985;53.180;5.800;2023-08-01T14:41:16;17.60;99.90
55091;DHT22;40985;53.180;5.800;2023-08-01T14:43:42;17.70;99.90
55091;DHT22;40985;53.180;5.800;2023-08-01T14:46:10;17.70;99.90
55091;DHT22;40985;53.180;5.800;2023-08-01T14:48:35;17.70;99.90
55091;DHT22;40985;53.180;5.800;2023-08-01T14:51:05;17.60;99.90
55091;DHT22;40985;53.180;5.800;2023-08-01T14:53:31;17.60;99.90
55091;DHT22;40985;53.180;5.800;2023-08-01T14:55:58;18.00;99.90
55091;DHT22;40985;53.180;5.800;2023-08-01T14:58:25;18.10;99.90
55091;DHT22;40985;53.180;5.800;2023-08-01T15:00:51;18.20;99.90
55091;DHT22;40985;53.180;5.800;2023-08-01T15:03:16;18.20;99.90
55091;DHT22;40985;53.180;5.800;2023-08-01T15:05:44;18.40;99.90
55091;DHT22;40985;53.180;5.800;2023-08-01T15:08:09;18.10;99.90
55091;DHT22;40985;53.180;5.800;2023-08-01T15:10:37;18.40;99.90
55091;DHT22;40985;53.180;5.800;2023-08-01T15:13:02;18.50;99.90
55091;DHT22;40985;53.180;5.800;2023-08-01T15:15:28;18.50;99.90
55091;DHT22;40985;53.180;5.800;2023-08-01T15:17:54;18.50;99.90
55091;DHT22;40985;53.180;5.800;2023-08-01T15:20:19;18.50;99.90
55091;DHT22;40985;53.180;5.800;2023-08-01T15:22:45;18.20;99.90
55091;DHT22;40985;53.180;5.800;2023-08-01T15:25:10;18.10;99.90
55091;DHT22;40985;53.180;5.800;2023-08-01T15:27:36;17.80;99.90
55091;DHT22;40985;53.180;5.800;2023-08-01T15:30:02;17.90;99.90